Weather History for Shawnee, OK

Change the Weather History Date:

Thursday, March 27, 2014

  Actual Average (KTIK) Record (KTIK)
Temperature  
Mean Temperature 68 °F -  
Max Temperature 82 °F 63 °F 85 °F (2008)
Min Temperature 55 °F 43 °F 32 °F (2009)
Cooling Degree Days 4    
Growing Degree Days 18 (Base 50)    
Moisture  
Dew Point 53 °F    
Average Humidity 66    
Maximum Humidity 100    
Minimum Humidity 23    
Precipitation  
Precipitation 0.00 in - - ()
Sea Level Pressure  
Sea Level Pressure 29.68 in    
Wind  
Wind Speed 16 mph (SSW)    
Max Wind Speed 28 mph    
Max Gust Speed 34 mph    
Visibility 10 miles    
Events      
Averages and records for this station are not official NWS values.
T = Trace of Precipitation, MM = Missing Value Source: NWS Daily Summary

Daily Weather History Graph

Daily Weather History Graph

Search for Another Location

Airport:

Trip Planner

Search our weather history database for the weather conditions in past years. The results will help you decide how hot, cold, wet, or windy it might be!

Date:

Astronomy

Mar. 27, 2014 Rise Set
Actual Time 7:21 AM CDT 7:45 PM CDT
Civil Twilight 6:55 AM CDT 8:10 PM CDT
Nautical Twilight 6:26 AM CDT 8:40 PM CDT
Astronomical Twilight 5:55 AM CDT 9:11 PM CDT
Moon 5:06 AM CDT (3/27) 4:40 PM CDT (3/27)
Length of Visible Light 13h 14m
Length of Day
12h 23m
Waning Crescent, 13% of the Moon is Illuminated
Mar 27
Waning Crescent
Mar 30
New
Apr 7
First Quarter
Apr 15
Full
Apr 22
Last Quarter

Hourly Weather History & Observations

Time (CDT) Temp. Dew Point Humidity Pressure Visibility Wind Dir Wind Speed Gust Speed Precip Events Conditions
12:15 AM 55.4 °F 50.0 °F 82% 29.77 in 10.0 mi South 16.1 mph 25.3 mph N/A   Mostly Cloudy
12:35 AM 55.4 °F 51.8 °F 88% 29.77 in 10.0 mi South 16.1 mph 23.0 mph N/A   Mostly Cloudy
1:15 AM 55.4 °F 51.8 °F 88% 29.75 in 10.0 mi South 18.4 mph 25.3 mph N/A   Overcast
1:35 AM 57.2 °F 53.6 °F 88% 29.74 in 10.0 mi South 19.6 mph 25.3 mph N/A   Overcast
1:55 AM 59.0 °F 53.6 °F 82% 29.74 in 10.0 mi South 18.4 mph 28.8 mph N/A   Overcast
2:15 AM 59.0 °F 53.6 °F 82% 29.73 in 10.0 mi South 17.3 mph 29.9 mph N/A   Overcast
2:35 AM 59.0 °F 53.6 °F 82% 29.73 in 10.0 mi South 17.3 mph 31.1 mph N/A   Overcast
2:55 AM 59.0 °F 53.6 °F 82% 29.73 in 10.0 mi South 18.4 mph 26.5 mph N/A   Overcast
3:15 AM 59.0 °F 53.6 °F 82% 29.73 in 10.0 mi South 17.3 mph 26.5 mph N/A   Overcast
3:35 AM 59.0 °F 55.4 °F 88% 29.72 in 10.0 mi South 18.4 mph 25.3 mph N/A   Overcast
3:55 AM 59.0 °F 55.4 °F 88% 29.71 in 10.0 mi South 18.4 mph 25.3 mph N/A   Overcast
4:15 AM 59.0 °F 55.4 °F 88% 29.70 in 7.0 mi South 17.3 mph 25.3 mph N/A   Overcast
4:35 AM 59.0 °F 55.4 °F 88% 29.70 in 7.0 mi South 15.0 mph - N/A   Overcast
4:55 AM 57.2 °F 55.4 °F 94% 29.70 in 7.0 mi South 15.0 mph 23.0 mph N/A   Overcast
5:15 AM 57.2 °F 55.4 °F 94% 29.70 in 5.0 mi South 11.5 mph - N/A   Overcast
5:35 AM 55.4 °F 55.4 °F 100% 29.69 in 5.0 mi South 13.8 mph 21.9 mph N/A   Overcast
5:55 AM 55.4 °F 55.4 °F 100% 29.69 in 7.0 mi South 13.8 mph 18.4 mph N/A   Overcast
6:15 AM 57.2 °F 57.2 °F 100% 29.69 in 7.0 mi South 12.7 mph 18.4 mph N/A   Overcast
6:35 AM 57.2 °F 57.2 °F 100% 29.68 in 10.0 mi South 13.8 mph 18.4 mph N/A   Overcast
6:55 AM 59.0 °F 59.0 °F 100% 29.67 in 10.0 mi South 15.0 mph 25.3 mph N/A   Overcast
7:15 AM 59.0 °F 59.0 °F 100% 29.67 in 10.0 mi South 17.3 mph 23.0 mph N/A   Overcast
7:35 AM 59.0 °F 59.0 °F 100% 29.67 in 10.0 mi South 12.7 mph 24.2 mph N/A   Overcast
7:55 AM 59.0 °F 59.0 °F 100% 29.67 in 10.0 mi South 17.3 mph 21.9 mph N/A   Overcast
8:15 AM 60.8 °F 60.8 °F 100% 29.67 in 10.0 mi South 18.4 mph 25.3 mph N/A   Overcast
8:35 AM 60.8 °F 60.8 °F 100% 29.68 in 10.0 mi South 18.4 mph 23.0 mph N/A   Overcast
8:55 AM 60.8 °F 59.0 °F 94% 29.71 in 10.0 mi SSW 16.1 mph 23.0 mph N/A   Overcast
9:15 AM 60.8 °F 59.0 °F 94% 29.71 in 10.0 mi South 12.7 mph 21.9 mph N/A   Overcast
9:35 AM 60.8 °F 59.0 °F 94% 29.70 in 10.0 mi South 13.8 mph 18.4 mph N/A   Overcast
9:55 AM 60.8 °F 60.8 °F 100% 29.68 in 10.0 mi South 13.8 mph 20.7 mph N/A   Overcast
10:15 AM 62.6 °F 60.8 °F 94% 29.68 in 10.0 mi South 16.1 mph 21.9 mph N/A   Overcast
10:35 AM 64.4 °F 60.8 °F 88% 29.67 in 10.0 mi SSW 16.1 mph 21.9 mph N/A   Overcast
10:55 AM 66.2 °F 62.6 °F 88% 29.66 in 10.0 mi South 18.4 mph 29.9 mph N/A   Overcast
11:15 AM 68.0 °F 62.6 °F 83% 29.65 in 10.0 mi SSW 21.9 mph 27.6 mph N/A   Overcast
11:35 AM 71.6 °F 62.6 °F 73% 29.64 in 10.0 mi SSW 17.3 mph 25.3 mph N/A   Mostly Cloudy
11:55 AM 71.6 °F 60.8 °F 69% 29.63 in 10.0 mi SSW 25.3 mph 31.1 mph N/A   Scattered Clouds
12:15 PM 73.4 °F 62.6 °F 69% 29.63 in 10.0 mi SSW 18.4 mph 29.9 mph N/A   Clear
12:35 PM 73.4 °F 60.8 °F 65% 29.62 in 10.0 mi SW 21.9 mph 29.9 mph N/A   Clear
12:55 PM 77.0 °F 60.8 °F 57% 29.62 in 10.0 mi SSW 17.3 mph 29.9 mph N/A   Scattered Clouds
1:15 PM 77.0 °F 59.0 °F 54% 29.62 in 10.0 mi SW 24.2 mph 32.2 mph N/A   Scattered Clouds
1:35 PM 78.8 °F 59.0 °F 51% 29.61 in 10.0 mi SW 17.3 mph 26.5 mph N/A   Scattered Clouds
1:55 PM 78.8 °F 55.4 °F 44% 29.61 in 10.0 mi SW 21.9 mph 33.4 mph N/A   Scattered Clouds
2:15 PM 78.8 °F 53.6 °F 42% 29.61 in 10.0 mi SW 23.0 mph 32.2 mph N/A   Scattered Clouds
2:35 PM 80.6 °F 51.8 °F 37% 29.60 in 10.0 mi SW 27.6 mph 34.5 mph N/A   Mostly Cloudy
2:55 PM 80.6 °F 50.0 °F 34% 29.61 in 10.0 mi WSW 19.6 mph 28.8 mph N/A   Scattered Clouds
3:15 PM 80.6 °F 50.0 °F 34% 29.61 in 10.0 mi WSW 20.7 mph 28.8 mph N/A   Clear
3:35 PM 80.6 °F 48.2 °F 32% 29.61 in 10.0 mi WSW 23.0 mph 27.6 mph N/A   Clear
3:55 PM 82.4 °F 48.2 °F 30% 29.61 in 10.0 mi SW 20.7 mph 26.5 mph N/A   Clear
4:15 PM 82.4 °F 46.4 °F 28% 29.61 in 10.0 mi SW 18.4 mph 25.3 mph N/A   Clear
4:35 PM 82.4 °F 46.4 °F 28% 29.60 in 10.0 mi WSW 13.8 mph 23.0 mph N/A   Clear
4:55 PM 82.4 °F 44.6 °F 26% 29.61 in 10.0 mi WSW 20.7 mph 31.1 mph N/A   Clear
5:15 PM 82.4 °F 42.8 °F 25% 29.61 in 10.0 mi WSW 19.6 mph 25.3 mph N/A   Clear
5:35 PM 80.6 °F 41.0 °F 24% 29.61 in 10.0 mi West 13.8 mph 24.2 mph N/A   Clear
5:55 PM 82.4 °F 41.0 °F 23% 29.62 in 10.0 mi West 18.4 mph 21.9 mph N/A   Clear
6:15 PM 80.6 °F 41.0 °F 24% 29.63 in 10.0 mi West 16.1 mph 23.0 mph N/A   Clear
6:35 PM 80.6 °F 41.0 °F 24% 29.64 in 10.0 mi WSW 11.5 mph 18.4 mph N/A   Clear
7:15 PM 78.8 °F 39.2 °F 24% 29.65 in 7.0 mi West 9.2 mph - N/A   Clear
7:35 PM 77.0 °F 39.2 °F 26% 29.66 in 7.0 mi West 6.9 mph - N/A   Clear
7:55 PM 73.4 °F 48.2 °F 41% 29.67 in 10.0 mi NNW 8.1 mph - N/A   Clear
8:15 PM 71.6 °F 50.0 °F 46% 29.69 in 10.0 mi North 6.9 mph - N/A   Clear
8:35 PM 71.6 °F 50.0 °F 46% 29.70 in 10.0 mi North 4.6 mph - N/A   Scattered Clouds
8:55 PM 68.0 °F 50.0 °F 52% 29.71 in 10.0 mi North 3.5 mph - N/A   Mostly Cloudy
9:15 PM 68.0 °F 50.0 °F 52% 29.73 in 10.0 mi North 4.6 mph - N/A   Mostly Cloudy
9:35 PM 68.0 °F 48.2 °F 49% 29.74 in 10.0 mi North 5.8 mph - N/A   Mostly Cloudy
9:55 PM 66.2 °F 48.2 °F 52% 29.75 in 10.0 mi NNE 3.5 mph - N/A   Mostly Cloudy
10:15 PM 66.2 °F 50.0 °F 56% 29.76 in 10.0 mi NNE 4.6 mph - N/A   Scattered Clouds
10:35 PM 64.4 °F 48.2 °F 56% 29.77 in 10.0 mi NNE 4.6 mph - N/A   Clear
10:55 PM 62.6 °F 48.2 °F 59% 29.78 in 10.0 mi NNE 5.8 mph - N/A   Clear
11:15 PM 62.6 °F 46.4 °F 55% 29.79 in 10.0 mi NNE 6.9 mph - N/A   Clear
11:35 PM 62.6 °F 46.4 °F 55% 29.81 in 10.0 mi NNE 6.9 mph - N/A   Clear
11:55 PM 62.6 °F 46.4 °F 55% 29.82 in 10.0 mi NNE 8.1 mph - N/A   Clear